ADDS METAR Data INFO
IDs: Format: Raw Decoded Include TAF

Data at: 0753 UTC 17 Oct 2017

KRUQ 170745Z AUTO 00000KT 10SM CLR 05/05 A3027 RMK AO2 T00450045
KRUQ 170725Z AUTO 00000KT 10SM CLR 05/05 A3027 RMK AO2 T00520051
KRUQ 170705Z AUTO 00000KT 10SM CLR 05/05 A3027 RMK AO2 T00510050
KRUQ 170645Z AUTO 00000KT 10SM CLR 05/05 A3027 RMK AO2 T00520050
KRUQ 170625Z AUTO 00000KT 10SM CLR 06/05 A3027 RMK AO2 T00600051
KRUQ 170605Z AUTO 00000KT 10SM CLR 07/05 A3027 RMK AO2 T00710045
KRUQ 170545Z AUTO 00000KT 10SM CLR 07/05 A3027 RMK AO2 T00660048
KRUQ 170525Z AUTO 00000KT 10SM CLR 07/04 A3026 RMK AO2 T00740043
KRUQ 170505Z AUTO 00000KT 10SM CLR 09/04 A3026 RMK AO2 T00860040
KRUQ 170445Z AUTO 00000KT 10SM CLR 09/04 A3026 RMK AO2 T00890040
KRUQ 170425Z AUTO 00000KT 10SM CLR 09/04 A3026 RMK AO2 T00900040
KRUQ 170405Z AUTO 00000KT 10SM CLR 09/04 A3026 RMK AO2 T00940040
KRUQ 170345Z AUTO 36003KT 10SM CLR 10/04 A3026 RMK AO2 T00950042
KRUQ 170325Z AUTO 35003KT 10SM CLR 09/05 A3026 RMK AO2 T00910045
KRUQ 170305Z AUTO 36003KT 10SM CLR 10/05 A3025 RMK AO2 T00950045
KRUQ 170245Z AUTO 35003KT 10SM CLR 10/05 A3025 RMK AO2 T00970046
KRUQ 170225Z AUTO 34004KT 10SM CLR 10/05 A3025 RMK AO2 T00990046
KRUQ 170205Z AUTO 34003KT 10SM CLR 11/05 A3025 RMK AO2 T01050045
KRUQ 170145Z AUTO 34004KT 10SM CLR 10/05 A3024 RMK AO2 T01020050
KRUQ 170125Z AUTO 35003KT 10SM CLR 11/05 A3023 RMK AO2 T01100045
KRUQ 170105Z AUTO 35004KT 10SM CLR 11/05 A3022 RMK AO2 T01120045
KRUQ 170045Z AUTO 36005KT 10SM CLR 12/05 A3021 RMK AO2 T01160046
KRUQ 170025Z AUTO 35004KT 10SM CLR 12/05 A3020 RMK AO2 T01160047
KRUQ 170005Z AUTO 36004KT 10SM CLR 13/04 A3019 RMK AO2 T01250043
KRUQ 162345Z AUTO 35004KT 10SM CLR 13/04 A3019 RMK AO2 T01300044
KRUQ 162325Z AUTO 35006KT 10SM CLR 14/04 A3018 RMK AO2 T01370042
KRUQ 162305Z AUTO 35010KT 10SM CLR 14/04 A3017 RMK AO2 T01430044
KRUQ 162245Z AUTO 35008KT 10SM CLR 15/05 A3016 RMK AO2 T01490048
KRUQ 162225Z AUTO 36008KT 10SM CLR 16/05 A3015 RMK AO2 T01580051
KRUQ 162205Z AUTO 36009G16KT 330V050 10SM CLR 17/05 A3014 RMK AO2 T01650054
KRUQ 162145Z AUTO 36012G17KT 10SM CLR 17/05 A3013 RMK AO2 T01690050
KRUQ 162125Z AUTO 01010G18KT 10SM CLR 17/05 A3012 RMK AO2 T01730050
KRUQ 162105Z AUTO 01008G20KT 10SM CLR 18/06 A3012 RMK AO2 T01770059
KRUQ 162045Z AUTO 33011G19KT 10SM CLR 18/07 A3011 RMK AO2 T01750069
KRUQ 162025Z AUTO 35009G20KT 10SM CLR 19/07 A3011 RMK AO2 T01850067
KRUQ 162005Z AUTO 34007G15KT 320V020 10SM CLR 19/07 A3010 RMK AO2 T01850068
KRUQ 161945Z AUTO 01010G16KT 10SM CLR 18/07 A3011 RMK AO2 T01810065
KRUQ 161925Z AUTO 02011G16KT 10SM CLR 17/06 A3011 RMK AO2 T01720062
KRUQ 161905Z AUTO 36006KT 340V040 10SM CLR 17/06 A3012 RMK AO2 T01680059
KRUQ 161845Z AUTO 35010G15KT 300V010 10SM CLR 17/06 A3012 RMK AO2 T01670064
KRUQ 161825Z AUTO 35011G17KT 10SM CLR 17/07 A3012 RMK AO2 T01740070
KRUQ 161805Z AUTO 34007G17KT 10SM CLR 18/07 A3011 RMK AO2 T01760069
KRUQ 161745Z AUTO 33011G17KT 290V360 10SM CLR 18/08 A3011 RMK AO2 T01820081
KRUQ 161725Z AUTO 33010G18KT 10SM CLR 18/08 A3012 RMK AO2 T01810081
KRUQ 161705Z AUTO 01008G17KT 10SM SCT049 BKN060 18/08 A3012 RMK AO2 T01790084
KRUQ 161645Z AUTO 36009G17KT 10SM OVC049 17/08 A3012 RMK AO2 T01690083
KRUQ 161625Z AUTO 01007KT 10SM OVC049 16/10 A3012 RMK AO2 T01630095
KRUQ 161605Z AUTO 35006KT 10SM OVC044 15/10 A3012 RMK AO2 T01540096
KRUQ 161545Z AUTO 36011G14KT 10SM OVC040 15/10 A3012 RMK AO2 T01540100
KRUQ 161525Z AUTO 01009G15KT 10SM OVC038 16/11 A3011 RMK AO2 T01550108
KRUQ 161505Z AUTO 01010KT 10SM OVC036 15/11 A3011 RMK AO2 T01500114
KRUQ 161445Z AUTO 01010G16KT 10SM OVC036 15/12 A3010 RMK AO2 T01450119
KRUQ 161425Z AUTO 36010G15KT 10SM OVC036 15/13 A3010 RMK AO2 T01490130
KRUQ 161405Z AUTO 01008KT 10SM SCT015 OVC034 15/14 A3010 RMK AO2 T01480135
KRUQ 161345Z AUTO 01008G16KT 10SM SCT015 OVC032 15/14 A3009 RMK AO2 T01500139
KRUQ 161325Z AUTO 01008KT 10SM SCT009 BKN030 BKN036 16/16 A3009 RMK AO2 T01550155
KRUQ 161305Z AUTO 36007KT 10SM -RA SCT030 SCT036 16/16 A3007 RMK AO2 T01550155
KRUQ 161245Z AUTO 36006KT 10SM RA SCT022 16/16 A3006 RMK AO2 P0009 T01580157
KRUQ 161225Z AUTO 36006KT 10SM RA SCT022 16/16 A3005 RMK AO2 P0006 T01580158
KRUQ 161205Z AUTO 35004KT 5SM RA SCT019 SCT043 SCT085 16/16 A3005 RMK AO2 P0003 T01600160
KRUQ 161145Z AUTO 32003KT 10SM DZ BKN019 BKN030 BKN085 17/16 A3005 RMK AO2 P0003 T01660157
KRUQ 161125Z AUTO 01006KT 10SM -RA SCT017 SCT032 BKN090 17/16 A3003 RMK AO2 P0003 T01720157
KRUQ 161105Z AUTO 35004KT 10SM SCT041 BKN090 BKN110 18/15 A3000 RMK AO2 T01810151
KRUQ 161045Z AUTO 02005KT 10SM SCT026 SCT035 BKN042 19/15 A2999 RMK AO2 T01850152
KRUQ 161025Z AUTO 36009G14KT 10SM SCT017 BKN026 BKN033 19/16 A3000 RMK AO2 T01910156
KRUQ 161005Z AUTO 36010KT 320V020 7SM SCT019 SCT026 SCT075 19/19 A2999 RMK AO2 T01920192
KRUQ 160945Z AUTO 35003KT 5SM BR CLR 19/19 A2998 RMK AO2 T01890189
KRUQ 160925Z AUTO 00000KT 4SM BR SCT120 19/19 A2997 RMK AO2 T01880188
KRUQ 160905Z AUTO 00000KT 7SM CLR 19/19 A2997 RMK AO2 T01930193
KRUQ 160845Z AUTO 00000KT 10SM CLR 20/20 A2997 RMK AO2 T01950195
KRUQ 160825Z AUTO 00000KT 10SM SCT043 20/20 A2997 RMK AO2 T01950195
KRUQ 160805Z AUTO 00000KT 10SM CLR 20/20 A2997 RMK AO2 T01970197
KRUQ 160745Z AUTO 22003KT 10SM CLR 20/20 A2998 RMK AO2 T01970197
KRUQ 160725Z AUTO 24004KT 10SM CLR 20/20 A2998 RMK AO2 T02000198
KRUQ 160705Z AUTO 22004KT 10SM CLR 20/20 A2998 RMK AO2 T02000198
KRUQ 160645Z AUTO 21005KT 10SM CLR 20/20 A2998 RMK AO2 T02000198
KRUQ 160625Z AUTO 22004KT 10SM CLR 20/20 A2998 RMK AO2 T01990197
KRUQ 160605Z AUTO 21004KT 10SM CLR 20/20 A2998 RMK AO2 T02000197
KRUQ 160545Z AUTO 21004KT 10SM CLR 20/20 A2999 RMK AO2 T02010197
KRUQ 160525Z AUTO 21004KT 10SM CLR 20/20 A2999 RMK AO2 T02020197
KRUQ 160505Z AUTO 21004KT 10SM CLR 20/20 A3000 RMK AO2 T02030196
KRUQ 160445Z AUTO 19004KT 10SM CLR 21/20 A3000 RMK AO2 T02050196
KRUQ 160425Z AUTO 19004KT 10SM CLR 21/20 A3001 RMK AO2 T02050196
KRUQ 160405Z AUTO 20004KT 10SM CLR 21/20 A3001 RMK AO2 T02060196
KRUQ 160345Z AUTO 23005KT 10SM CLR 21/20 A3002 RMK AO2 T02100195
KRUQ 160325Z AUTO 23005KT 10SM SCT120 21/19 A3003 RMK AO2 T02100193
KRUQ 160305Z AUTO 22006KT 10SM SCT120 21/19 A3002 RMK AO2 T02120191
KRUQ 160245Z AUTO 19009KT 10SM SCT120 21/19 A3001 RMK AO2 T02120190
KRUQ 160225Z AUTO 20006KT 10SM CLR 21/19 A3001 RMK AO2 T02120189
KRUQ 160205Z AUTO 20005KT 10SM CLR 21/19 A3002 RMK AO2 T02110186
KRUQ 160145Z AUTO 20004KT 10SM CLR 21/19 A3003 RMK AO2 T02060186
KRUQ 160125Z AUTO 19004KT 10SM CLR 20/19 A3002 RMK AO2 T02040185
KRUQ 160105Z AUTO 21003KT 10SM CLR 19/19 A3003 RMK AO2 T01870187
KRUQ 160045Z AUTO 19003KT 10SM CLR 19/19 A3003 RMK AO2 T01940190
KRUQ 160025Z AUTO 00000KT 10SM CLR 20/19 A3003 RMK AO2 T01980191
KRUQ 160005Z AUTO 19003KT 10SM CLR 22/19 A3002 RMK AO2 T02180186
KRUQ 152345Z AUTO 20003KT 10SM CLR 21/19 A3002 RMK AO2 T02110187
KRUQ 152325Z AUTO 19003KT 10SM CLR 22/19 A3001 RMK AO2 T02220185
KRUQ 152305Z AUTO 00000KT 10SM CLR 24/19 A3000 RMK AO2 T02360185
KRUQ 152245Z AUTO 20003KT 10SM CLR 24/19 A3001 RMK AO2 T02370185
KRUQ 152225Z AUTO 21004KT 10SM CLR 25/18 A3001 RMK AO2 T02460184
KRUQ 152205Z AUTO 23004KT 10SM CLR 25/18 A3002 RMK AO2 T02520184
KRUQ 152145Z AUTO 23006KT 10SM CLR 26/18 A3002 RMK AO2 T02560182
KRUQ 152125Z AUTO 21008KT 10SM CLR 26/18 A3003 RMK AO2 T02610184
KRUQ 152105Z AUTO 24008KT 10SM SCT035 27/18 A3003 RMK AO2 T02650184
KRUQ 152045Z AUTO 20009KT 10SM SCT037 SCT043 27/18 A3004 RMK AO2 T02650184
KRUQ 152025Z AUTO 21007KT 10SM SCT034 SCT041 26/19 A3005 RMK AO2 T02600190
KRUQ 152005Z AUTO 23009KT 10SM SCT033 SCT040 27/19 A3005 RMK AO2 T02740192